sensor_id;sensor_type;location;lat;lon;timestamp;pressure;altitude;pressure_sealevel;temperature;humidity
4398;BME280;2213;49.720;7.296;2022-09-17T00:00:07;97826.53;;;11.35;100.00
4398;BME280;2213;49.720;7.296;2022-09-17T00:02:36;97816.88;;;11.36;100.00
4398;BME280;2213;49.720;7.296;2022-09-17T00:05:07;97829.38;;;11.40;100.00
4398;BME280;2213;49.720;7.296;2022-09-17T00:07:38;97814.88;;;11.38;100.00
4398;BME280;2213;49.720;7.296;2022-09-17T00:10:08;97822.13;;;11.42;100.00
4398;BME280;2213;49.720;7.296;2022-09-17T00:12:37;97822.75;;;11.44;100.00
4398;BME280;2213;49.720;7.296;2022-09-17T00:15:07;97831.19;;;11.40;100.00
4398;BME280;2213;49.720;7.296;2022-09-17T00:17:36;97822.91;;;11.36;100.00
4398;BME280;2213;49.720;7.296;2022-09-17T00:20:08;97819.69;;;11.34;100.00
4398;BME280;2213;49.720;7.296;2022-09-17T00:22:39;97826.16;;;11.38;100.00
4398;BME280;2213;49.720;7.296;2022-09-17T00:25:07;97825.13;;;11.39;100.00
4398;BME280;2213;49.720;7.296;2022-09-17T00:27:36;97827.97;;;11.38;100.00
4398;BME280;2213;49.720;7.296;2022-09-17T00:30:06;97839.44;;;11.37;100.00
4398;BME280;2213;49.720;7.296;2022-09-17T00:32:35;97836.22;;;11.35;100.00
4398;BME280;2213;49.720;7.296;2022-09-17T00:35:06;97836.81;;;11.37;100.00
4398;BME280;2213;49.720;7.296;2022-09-17T00:37:35;97834.56;;;11.27;100.00
4398;BME280;2213;49.720;7.296;2022-09-17T00:40:04;97835.56;;;11.26;100.00
4398;BME280;2213;49.720;7.296;2022-09-17T00:42:33;97837.59;;;11.24;100.00
4398;BME280;2213;49.720;7.296;2022-09-17T00:45:02;97827.72;;;11.26;100.00
4398;BME280;2213;49.720;7.296;2022-09-17T00:47:37;97832.53;;;11.23;100.00
4398;BME280;2213;49.720;7.296;2022-09-17T00:50:13;97837.97;;;11.21;100.00
4398;BME280;2213;49.720;7.296;2022-09-17T00:52:47;97840.22;;;11.24;100.00
4398;BME280;2213;49.720;7.296;2022-09-17T00:55:26;97841.41;;;11.28;100.00
4398;BME280;2213;49.720;7.296;2022-09-17T00:57:58;97841.81;;;11.32;100.00
4398;BME280;2213;49.720;7.296;2022-09-17T01:00:31;97837.41;;;11.32;100.00
4398;BME280;2213;49.720;7.296;2022-09-17T01:03:03;97831.75;;;11.35;100.00
4398;BME280;2213;49.720;7.296;2022-09-17T01:05:42;97838.22;;;11.39;100.00
4398;BME280;2213;49.720;7.296;2022-09-17T01:08:24;97828.97;;;11.43;100.00
4398;BME280;2213;49.720;7.296;2022-09-17T01:11:25;97841.06;;;11.44;100.00
4398;BME280;2213;49.720;7.296;2022-09-17T01:14:12;97836.22;;;11.41;100.00
4398;BME280;2213;49.720;7.296;2022-09-17T01:16:55;97831.00;;;11.41;100.00
4398;BME280;2213;49.720;7.296;2022-09-17T01:20:09;97838.63;;;11.36;100.00
4398;BME280;2213;49.720;7.296;2022-09-17T01:23:05;97830.19;;;11.41;100.00
4398;BME280;2213;49.720;7.296;2022-09-17T01:25:55;97837.44;;;11.45;100.00
4398;BME280;2213;49.720;7.296;2022-09-17T01:28:40;97840.28;;;11.50;100.00
4398;BME280;2213;49.720;7.296;2022-09-17T01:31:32;97841.47;;;11.41;100.00
4398;BME280;2213;49.720;7.296;2022-09-17T01:34:13;97856.94;;;11.36;100.00
4398;BME280;2213;49.720;7.296;2022-09-17T01:36:58;97855.31;;;11.35;100.00
4398;BME280;2213;49.720;7.296;2022-09-17T01:39:45;97855.94;;;11.31;100.00
4398;BME280;2213;49.720;7.296;2022-09-17T01:42:24;97858.34;;;11.39;100.00
4398;BME280;2213;49.720;7.296;2022-09-17T01:45:06;97852.34;;;11.38;100.00
4398;BME280;2213;49.720;7.296;2022-09-17T01:47:43;97851.31;;;11.39;100.00
4398;BME280;2213;49.720;7.296;2022-09-17T01:50:22;97852.94;;;11.40;100.00
4398;BME280;2213;49.720;7.296;2022-09-17T01:52:56;97845.09;;;11.40;100.00
4398;BME280;2213;49.720;7.296;2022-09-17T01:55:34;97847.09;;;11.38;100.00
4398;BME280;2213;49.720;7.296;2022-09-17T01:58:10;97850.09;;;11.35;100.00
4398;BME280;2213;49.720;7.296;2022-09-17T02:00:46;97854.97;;;11.38;100.00
4398;BME280;2213;49.720;7.296;2022-09-17T02:03:23;97850.72;;;11.37;100.00
4398;BME280;2213;49.720;7.296;2022-09-17T02:06:01;97847.44;;;11.29;100.00
4398;BME280;2213;49.720;7.296;2022-09-17T02:08:40;97838.59;;;11.23;100.00
4398;BME280;2213;49.720;7.296;2022-09-17T02:11:13;97836.97;;;11.22;100.00
4398;BME280;2213;49.720;7.296;2022-09-17T02:13:47;97834.75;;;11.26;100.00
4398;BME280;2213;49.720;7.296;2022-09-17T02:16:25;97830.94;;;11.28;100.00
4398;BME280;2213;49.720;7.296;2022-09-17T02:19:01;97838.00;;;11.28;100.00
4398;BME280;2213;49.720;7.296;2022-09-17T02:21:41;97847.84;;;11.26;100.00
4398;BME280;2213;49.720;7.296;2022-09-17T02:24:20;97843.56;;;11.11;100.00
4398;BME280;2213;49.720;7.296;2022-09-17T02:27:01;97853.03;;;11.13;100.00
4398;BME280;2213;49.720;7.296;2022-09-17T02:29:38;97853.47;;;11.16;100.00
4398;BME280;2213;49.720;7.296;2022-09-17T02:32:08;97849.22;;;11.15;100.00
4398;BME280;2213;49.720;7.296;2022-09-17T02:34:39;97854.66;;;11.14;100.00
4398;BME280;2213;49.720;7.296;2022-09-17T02:37:08;97849.44;;;11.14;100.00
4398;BME280;2213;49.720;7.296;2022-09-17T02:39:37;97857.06;;;11.15;100.00
4398;BME280;2213;49.720;7.296;2022-09-17T02:42:20;97867.34;;;11.17;100.00
4398;BME280;2213;49.720;7.296;2022-09-17T02:45:04;97861.31;;;11.16;100.00
4398;BME280;2213;49.720;7.296;2022-09-17T02:48:04;97855.41;;;11.07;100.00
4398;BME280;2213;49.720;7.296;2022-09-17T02:51:23;97851.78;;;11.02;100.00
4398;BME280;2213;49.720;7.296;2022-09-17T02:54:14;97843.94;;;11.02;100.00
4398;BME280;2213;49.720;7.296;2022-09-17T02:56:54;97843.34;;;11.00;100.00
4398;BME280;2213;49.720;7.296;2022-09-17T02:59:33;97840.50;;;11.01;100.00
4398;BME280;2213;49.720;7.296;2022-09-17T03:02:16;97845.16;;;11.06;100.00
4398;BME280;2213;49.720;7.296;2022-09-17T03:04:49;97843.16;;;11.08;100.00
4398;BME280;2213;49.720;7.296;2022-09-17T03:07:22;97844.78;;;11.09;100.00
4398;BME280;2213;49.720;7.296;2022-09-17T03:09:51;97851.63;;;11.10;100.00
4398;BME280;2213;49.720;7.296;2022-09-17T03:12:19;97851.63;;;11.10;100.00
4398;BME280;2213;49.720;7.296;2022-09-17T03:14:51;97851.22;;;11.06;100.00
4398;BME280;2213;49.720;7.296;2022-09-17T03:17:20;97852.78;;;11.01;100.00
4398;BME280;2213;49.720;7.296;2022-09-17T03:19:48;97858.63;;;11.03;100.00
4398;BME280;2213;49.720;7.296;2022-09-17T03:22:17;97853.59;;;11.01;100.00
4398;BME280;2213;49.720;7.296;2022-09-17T03:24:48;97851.38;;;11.05;100.00
4398;BME280;2213;49.720;7.296;2022-09-17T03:27:16;97856.06;;;11.09;100.00
4398;BME280;2213;49.720;7.296;2022-09-17T03:29:45;97861.69;;;11.13;100.00
4398;BME280;2213;49.720;7.296;2022-09-17T03:32:14;97868.91;;;11.11;100.00
4398;BME280;2213;49.720;7.296;2022-09-17T03:34:43;97862.31;;;11.15;100.00
4398;BME280;2213;49.720;7.296;2022-09-17T03:37:13;97863.91;;;11.16;100.00
4398;BME280;2213;49.720;7.296;2022-09-17T03:39:41;97867.53;;;11.15;100.00
4398;BME280;2213;49.720;7.296;2022-09-17T03:42:12;97870.94;;;11.09;100.00
4398;BME280;2213;49.720;7.296;2022-09-17T03:44:40;97875.38;;;11.15;100.00
4398;BME280;2213;49.720;7.296;2022-09-17T03:47:11;97867.94;;;11.19;100.00
4398;BME280;2213;49.720;7.296;2022-09-17T03:49:44;97865.34;;;11.19;100.00
4398;BME280;2213;49.720;7.296;2022-09-17T03:52:14;97868.38;;;11.22;100.00
4398;BME280;2213;49.720;7.296;2022-09-17T03:54:42;97863.94;;;11.23;100.00
4398;BME280;2213;49.720;7.296;2022-09-17T03:57:13;97864.91;;;11.15;100.00
4398;BME280;2213;49.720;7.296;2022-09-17T03:59:42;97861.69;;;11.13;100.00
4398;BME280;2213;49.720;7.296;2022-09-17T04:02:10;97861.91;;;11.18;100.00
4398;BME280;2213;49.720;7.296;2022-09-17T04:04:39;97870.19;;;11.22;100.00
4398;BME280;2213;49.720;7.296;2022-09-17T04:07:07;97870.19;;;11.22;100.00
4398;BME280;2213;49.720;7.296;2022-09-17T04:09:36;97866.97;;;11.20;100.00
4398;BME280;2213;49.720;7.296;2022-09-17T04:12:06;97879.66;;;11.23;100.00
4398;BME280;2213;49.720;7.296;2022-09-17T04:14:36;97873.22;;;11.25;100.00
4398;BME280;2213;49.720;7.296;2022-09-17T04:17:05;97875.66;;;11.27;100.00
4398;BME280;2213;49.720;7.296;2022-09-17T04:19:34;97873.03;;;11.27;100.00
4398;BME280;2213;49.720;7.296;2022-09-17T04:22:03;97879.25;;;11.26;100.00
4398;BME280;2213;49.720;7.296;2022-09-17T04:24:33;97879.22;;;11.19;100.00
4398;BME280;2213;49.720;7.296;2022-09-17T04:27:03;97871.00;;;11.22;100.00
4398;BME280;2213;49.720;7.296;2022-09-17T04:29:31;97879.25;;;11.26;100.00
4398;BME280;2213;49.720;7.296;2022-09-17T04:32:02;97879.84;;;11.21;100.00
4398;BME280;2213;49.720;7.296;2022-09-17T04:34:31;97885.28;;;11.20;100.00
4398;BME280;2213;49.720;7.296;2022-09-17T04:37:00;97881.84;;;11.19;100.00
4398;BME280;2213;49.720;7.296;2022-09-17T04:39:29;97882.84;;;11.18;100.00
4398;BME280;2213;49.720;7.296;2022-09-17T04:41:58;97881.84;;;11.19;100.00
4398;BME280;2213;49.720;7.296;2022-09-17T04:44:27;97877.00;;;11.16;100.00
4398;BME280;2213;49.720;7.296;2022-09-17T04:46:57;97881.63;;;11.14;100.00
4398;BME280;2213;49.720;7.296;2022-09-17T04:49:28;97887.66;;;11.15;100.00
4398;BME280;2213;49.720;7.296;2022-09-17T04:51:57;97895.31;;;11.16;100.00
4398;BME280;2213;49.720;7.296;2022-09-17T04:54:26;97897.34;;;11.14;100.00
4398;BME280;2213;49.720;7.296;2022-09-17T04:56:54;97892.47;;;11.11;100.00
4398;BME280;2213;49.720;7.296;2022-09-17T04:59:23;97898.72;;;11.10;100.00
4398;BME280;2213;49.720;7.296;2022-09-17T05:01:52;97911.38;;;11.06;100.00
4398;BME280;2213;49.720;7.296;2022-09-17T05:04:22;97907.72;;;11.01;100.00
4398;BME280;2213;49.720;7.296;2022-09-17T05:06:52;97908.53;;;11.01;100.00
4398;BME280;2213;49.720;7.296;2022-09-17T05:09:20;97921.00;;;10.99;100.00
4398;BME280;2213;49.720;7.296;2022-09-17T05:11:49;97925.44;;;10.99;100.00
4398;BME280;2213;49.720;7.296;2022-09-17T05:14:18;97928.03;;;10.99;100.00
4398;BME280;2213;49.720;7.296;2022-09-17T05:16:46;97925.59;;;10.97;100.00
4398;BME280;2213;49.720;7.296;2022-09-17T05:19:16;97914.34;;;10.97;100.00
4398;BME280;2213;49.720;7.296;2022-09-17T05:21:45;97909.09;;;10.97;100.00
4398;BME280;2213;49.720;7.296;2022-09-17T05:24:15;97924.78;;;10.97;100.00
4398;BME280;2213;49.720;7.296;2022-09-17T05:26:43;97920.34;;;10.91;100.00
4398;BME280;2213;49.720;7.296;2022-09-17T05:29:12;97916.72;;;10.92;100.00
4398;BME280;2213;49.720;7.296;2022-09-17T05:31:41;97927.81;;;10.94;100.00
4398;BME280;2213;49.720;7.296;2022-09-17T05:34:10;97930.03;;;10.97;100.00
4398;BME280;2213;49.720;7.296;2022-09-17T05:36:39;97932.28;;;11.00;100.00
4398;BME280;2213;49.720;7.296;2022-09-17T05:39:07;97928.25;;;11.04;100.00
4398;BME280;2213;49.720;7.296;2022-09-17T05:41:37;97919.41;;;11.05;100.00
4398;BME280;2213;49.720;7.296;2022-09-17T05:44:06;97927.91;;;11.07;100.00
4398;BME280;2213;49.720;7.296;2022-09-17T05:46:35;97934.34;;;11.11;100.00
4398;BME280;2213;49.720;7.296;2022-09-17T05:49:04;97935.78;;;11.14;100.00
4398;BME280;2213;49.720;7.296;2022-09-17T05:51:33;97942.44;;;11.16;100.00
4398;BME280;2213;49.720;7.296;2022-09-17T05:54:01;97943.25;;;11.17;100.00
4398;BME280;2213;49.720;7.296;2022-09-17T05:56:30;97932.38;;;11.20;100.00
4398;BME280;2213;49.720;7.296;2022-09-17T05:59:00;97940.03;;;11.21;100.00
4398;BME280;2213;49.720;7.296;2022-09-17T06:01:29;97940.03;;;11.21;100.00
4398;BME280;2213;49.720;7.296;2022-09-17T06:03:58;97948.50;;;11.23;100.00
4398;BME280;2213;49.720;7.296;2022-09-17T06:06:31;97954.16;;;11.20;100.00
4398;BME280;2213;49.720;7.296;2022-09-17T06:09:00;97950.50;;;11.21;100.00
4398;BME280;2213;49.720;7.296;2022-09-17T06:11:29;97948.47;;;11.17;100.00
4398;BME280;2213;49.720;7.296;2022-09-17T06:13:59;97953.13;;;11.21;100.00
4398;BME280;2213;49.720;7.296;2022-09-17T06:16:28;97963.81;;;11.20;100.00
4398;BME280;2213;49.720;7.296;2022-09-17T06:18:58;97966.59;;;11.18;100.00
4398;BME280;2213;49.720;7.296;2022-09-17T06:21:27;97965.22;;;11.22;100.00
4398;BME280;2213;49.720;7.296;2022-09-17T06:23:56;97969.47;;;11.23;100.00
4398;BME280;2213;49.720;7.296;2022-09-17T06:26:27;97968.25;;;11.26;100.00
4398;BME280;2213;49.720;7.296;2022-09-17T06:29:00;97971.88;;;11.25;100.00
4398;BME280;2213;49.720;7.296;2022-09-17T06:31:29;97966.88;;;11.30;100.00
4398;BME280;2213;49.720;7.296;2022-09-17T06:33:58;97967.28;;;11.33;100.00
4398;BME280;2213;49.720;7.296;2022-09-17T06:36:27;97969.53;;;11.36;100.00
4398;BME280;2213;49.720;7.296;2022-09-17T06:38:58;97968.13;;;11.40;100.00
4398;BME280;2213;49.720;7.296;2022-09-17T06:41:26;97958.25;;;11.42;100.00
4398;BME280;2213;49.720;7.296;2022-09-17T06:43:55;97968.34;;;11.45;100.00
4398;BME280;2213;49.720;7.296;2022-09-17T06:46:27;97973.22;;;11.48;100.00
4398;BME280;2213;49.720;7.296;2022-09-17T06:48:56;97974.25;;;11.54;100.00
4398;BME280;2213;49.720;7.296;2022-09-17T06:51:25;97980.91;;;11.56;100.00
4398;BME280;2213;49.720;7.296;2022-09-17T06:53:53;97981.31;;;11.60;100.00
4398;BME280;2213;49.720;7.296;2022-09-17T06:56:22;97986.78;;;11.65;100.00
4398;BME280;2213;49.720;7.296;2022-09-17T06:58:51;97978.94;;;11.65;100.00
4398;BME280;2213;49.720;7.296;2022-09-17T07:01:19;97982.38;;;11.66;100.00
4398;BME280;2213;49.720;7.296;2022-09-17T07:03:49;97972.50;;;11.68;100.00
4398;BME280;2213;49.720;7.296;2022-09-17T07:06:18;97975.31;;;11.66;100.00
4398;BME280;2213;49.720;7.296;2022-09-17T07:08:47;97976.38;;;11.72;100.00
4398;BME280;2213;49.720;7.296;2022-09-17T07:11:15;97977.38;;;11.77;100.00
4398;BME280;2213;49.720;7.296;2022-09-17T07:13:44;97978.19;;;11.78;100.00
4398;BME280;2213;49.720;7.296;2022-09-17T07:16:13;97976.19;;;11.80;100.00
4398;BME280;2213;49.720;7.296;2022-09-17T07:18:42;97979.81;;;11.79;100.00
4398;BME280;2213;49.720;7.296;2022-09-17T07:21:12;97979.25;;;11.83;100.00
4398;BME280;2213;49.720;7.296;2022-09-17T07:23:41;97982.28;;;11.87;100.00
4398;BME280;2213;49.720;7.296;2022-09-17T07:26:13;97979.66;;;11.87;100.00
4398;BME280;2213;49.720;7.296;2022-09-17T07:28:43;97974.84;;;11.90;100.00
4398;BME280;2213;49.720;7.296;2022-09-17T07:31:13;97979.66;;;11.87;100.00
4398;BME280;2213;49.720;7.296;2022-09-17T07:33:43;97972.78;;;11.86;100.00
4398;BME280;2213;49.720;7.296;2022-09-17T07:36:15;97965.53;;;11.88;100.00
4398;BME280;2213;49.720;7.296;2022-09-17T07:38:44;97963.53;;;11.90;100.00
4398;BME280;2213;49.720;7.296;2022-09-17T07:41:15;97954.47;;;11.92;100.00
4398;BME280;2213;49.720;7.296;2022-09-17T07:43:45;97974.63;;;11.92;100.00
4398;BME280;2213;49.720;7.296;2022-09-17T07:46:16;97973.22;;;11.96;100.00
4398;BME280;2213;49.720;7.296;2022-09-17T07:48:46;97972.22;;;11.97;100.00
4398;BME280;2213;49.720;7.296;2022-09-17T07:51:18;97980.69;;;11.99;100.00
4398;BME280;2213;49.720;7.296;2022-09-17T07:53:50;97977.88;;;11.94;100.00
4398;BME280;2213;49.720;7.296;2022-09-17T07:56:20;97980.50;;;11.94;100.00
4398;BME280;2213;49.720;7.296;2022-09-17T07:58:50;97967.97;;;11.96;100.00
4398;BME280;2213;49.720;7.296;2022-09-17T08:01:19;97969.59;;;11.97;100.00
4398;BME280;2213;49.720;7.296;2022-09-17T08:03:51;97970.59;;;11.96;100.00
4398;BME280;2213;49.720;7.296;2022-09-17T08:06:24;97967.81;;;12.04;100.00
4398;BME280;2213;49.720;7.296;2022-09-17T08:08:54;97975.69;;;12.10;100.00
4398;BME280;2213;49.720;7.296;2022-09-17T08:11:26;97972.06;;;12.18;100.00
4398;BME280;2213;49.720;7.296;2022-09-17T08:14:15;97970.88;;;12.21;100.00
4398;BME280;2213;49.720;7.296;2022-09-17T08:16:43;97973.91;;;12.24;100.00
4398;BME280;2213;49.720;7.296;2022-09-17T08:19:14;97964.00;;;12.26;100.00
4398;BME280;2213;49.720;7.296;2022-09-17T08:21:46;97974.31;;;12.28;100.00
4398;BME280;2213;49.720;7.296;2022-09-17T08:24:15;97979.97;;;12.31;100.00
4398;BME280;2213;49.720;7.296;2022-09-17T08:26:44;97971.06;;;12.32;100.00
4398;BME280;2213;49.720;7.296;2022-09-17T08:29:13;97974.31;;;12.34;100.00
4398;BME280;2213;49.720;7.296;2022-09-17T08:31:41;97983.00;;;12.41;100.00
4398;BME280;2213;49.720;7.296;2022-09-17T08:34:10;97991.28;;;12.51;100.00
4398;BME280;2213;49.720;7.296;2022-09-17T08:36:39;97995.53;;;12.52;100.00
4398;BME280;2213;49.720;7.296;2022-09-17T08:39:09;97994.91;;;12.63;100.00
4398;BME280;2213;49.720;7.296;2022-09-17T08:41:51;97987.84;;;12.71;100.00
4398;BME280;2213;49.720;7.296;2022-09-17T08:44:26;97991.50;;;12.76;100.00
4398;BME280;2213;49.720;7.296;2022-09-17T08:47:00;97981.59;;;12.85;100.00
4398;BME280;2213;49.720;7.296;2022-09-17T08:49:35;97989.25;;;12.93;100.00
4398;BME280;2213;49.720;7.296;2022-09-17T08:55:50;97987.25;;;13.01;100.00
4398;BME280;2213;49.720;7.296;2022-09-17T08:58:58;97987.25;;;13.08;100.00
4398;BME280;2213;49.720;7.296;2022-09-17T09:01:39;97982.41;;;13.18;100.00
4398;BME280;2213;49.720;7.296;2022-09-17T09:05:00;97980.75;;;13.30;100.00
4398;BME280;2213;49.720;7.296;2022-09-17T09:07:37;97994.91;;;13.29;100.00
4398;BME280;2213;49.720;7.296;2022-09-17T09:10:17;97995.53;;;13.25;100.00
4398;BME280;2213;49.720;7.296;2022-09-17T09:12:51;97996.53;;;13.24;100.00
4398;BME280;2213;49.720;7.296;2022-09-17T09:15:32;98000.75;;;13.31;100.00
4398;BME280;2213;49.720;7.296;2022-09-17T09:18:17;97997.50;;;13.42;100.00
4398;BME280;2213;49.720;7.296;2022-09-17T09:20:50;97996.88;;;13.40;100.00
4398;BME280;2213;49.720;7.296;2022-09-17T09:23:31;97993.25;;;13.48;100.00
4398;BME280;2213;49.720;7.296;2022-09-17T09:26:13;97997.25;;;13.50;100.00
4398;BME280;2213;49.720;7.296;2022-09-17T09:29:02;98000.50;;;13.52;100.00
4398;BME280;2213;49.720;7.296;2022-09-17T09:32:02;98009.41;;;13.51;100.00
4398;BME280;2213;49.720;7.296;2022-09-17T09:34:44;98018.69;;;13.47;100.00
4398;BME280;2213;49.720;7.296;2022-09-17T09:37:22;98015.91;;;13.36;100.00
4398;BME280;2213;49.720;7.296;2022-09-17T09:39:54;98022.56;;;13.38;100.00
4398;BME280;2213;49.720;7.296;2022-09-17T09:42:31;98031.44;;;13.37;100.00
4398;BME280;2213;49.720;7.296;2022-09-17T09:45:12;98035.91;;;13.24;100.00
4398;BME280;2213;49.720;7.296;2022-09-17T09:47:58;98042.56;;;13.26;100.00
4398;BME280;2213;49.720;7.296;2022-09-17T09:50:42;98049.03;;;13.24;100.00
4398;BME280;2213;49.720;7.296;2022-09-17T09:53:49;98053.50;;;13.17;100.00
4398;BME280;2213;49.720;7.296;2022-09-17T09:56:41;98051.84;;;13.02;100.00
4398;BME280;2213;49.720;7.296;2022-09-17T09:59:12;98053.66;;;12.89;100.00
4398;BME280;2213;49.720;7.296;2022-09-17T10:01:42;98053.66;;;12.76;100.00
4398;BME280;2213;49.720;7.296;2022-09-17T10:04:20;98054.66;;;12.61;100.00
4398;BME280;2213;49.720;7.296;2022-09-17T10:06:54;98049.81;;;12.58;100.00
4398;BME280;2213;49.720;7.296;2022-09-17T10:09:31;98049.00;;;12.58;100.00
4398;BME280;2213;49.720;7.296;2022-09-17T10:12:09;98048.59;;;12.61;100.00
4398;BME280;2213;49.720;7.296;2022-09-17T10:14:44;98044.97;;;12.69;100.00
4398;BME280;2213;49.720;7.296;2022-09-17T10:17:22;98053.25;;;12.66;100.00
4398;BME280;2213;49.720;7.296;2022-09-17T10:20:15;98053.06;;;12.74;100.00
4398;BME280;2213;49.720;7.296;2022-09-17T10:22:49;98054.06;;;12.73;100.00
4398;BME280;2213;49.720;7.296;2022-09-17T10:25:27;98058.91;;;12.69;100.00
4398;BME280;2213;49.720;7.296;2022-09-17T10:27:59;98069.59;;;12.68;100.00
4398;BME280;2213;49.720;7.296;2022-09-17T10:30:29;98063.75;;;12.66;100.00
4398;BME280;2213;49.720;7.296;2022-09-17T10:33:20;98070.00;;;12.65;100.00
4398;BME280;2213;49.720;7.296;2022-09-17T10:36:00;98081.09;;;12.67;100.00
4398;BME280;2213;49.720;7.296;2022-09-17T10:38:35;98076.44;;;12.62;100.00
4398;BME280;2213;49.720;7.296;2022-09-17T10:41:17;98068.38;;;12.63;100.00
4398;BME280;2213;49.720;7.296;2022-09-17T10:43:48;98060.72;;;12.62;100.00
4398;BME280;2213;49.720;7.296;2022-09-17T10:46:22;98058.25;;;12.54;100.00
4398;BME280;2213;49.720;7.296;2022-09-17T10:49:09;98057.69;;;12.58;100.00
4398;BME280;2213;49.720;7.296;2022-09-17T10:51:38;98047.38;;;12.63;100.00
4398;BME280;2213;49.720;7.296;2022-09-17T10:54:40;98047.00;;;12.67;100.00
4398;BME280;2213;49.720;7.296;2022-09-17T10:57:23;98043.34;;;12.74;100.00
4398;BME280;2213;49.720;7.296;2022-09-17T11:00:07;98036.50;;;12.80;100.00
4398;BME280;2213;49.720;7.296;2022-09-17T11:06:50;98036.69;;;12.91;100.00
4398;BME280;2213;49.720;7.296;2022-09-17T11:09:42;98027.22;;;12.97;100.00
4398;BME280;2213;49.720;7.296;2022-09-17T11:12:30;98023.59;;;12.98;100.00
4398;BME280;2213;49.720;7.296;2022-09-17T11:15:08;98011.88;;;13.00;100.00
4398;BME280;2213;49.720;7.296;2022-09-17T11:18:11;98008.66;;;13.05;100.00
4398;BME280;2213;49.720;7.296;2022-09-17T11:21:02;98005.81;;;13.06;100.00
4398;BME280;2213;49.720;7.296;2022-09-17T11:27:31;98004.00;;;13.07;100.00
4398;BME280;2213;49.720;7.296;2022-09-17T11:30:14;98009.03;;;13.08;100.00
4398;BME280;2213;49.720;7.296;2022-09-17T11:33:23;98010.50;;;13.11;100.00
4398;BME280;2213;49.720;7.296;2022-09-17T11:36:00;98013.72;;;13.13;100.00
4398;BME280;2213;49.720;7.296;2022-09-17T11:38:38;98004.63;;;13.09;100.00
4398;BME280;2213;49.720;7.296;2022-09-17T11:41:14;98017.75;;;13.09;100.00
4398;BME280;2213;49.720;7.296;2022-09-17T11:43:59;98013.13;;;13.11;100.00
4398;BME280;2213;49.720;7.296;2022-09-17T11:46:38;98016.91;;;13.08;100.00
4398;BME280;2213;49.720;7.296;2022-09-17T11:49:19;98002.19;;;13.01;100.00
4398;BME280;2213;49.720;7.296;2022-09-17T11:51:56;98002.59;;;12.98;100.00
4398;BME280;2213;49.720;7.296;2022-09-17T11:54:31;97994.50;;;13.06;100.00
4398;BME280;2213;49.720;7.296;2022-09-17T11:57:12;97993.31;;;13.15;100.00
4398;BME280;2213;49.720;7.296;2022-09-17T11:59:51;98003.41;;;13.18;100.00
4398;BME280;2213;49.720;7.296;2022-09-17T12:02:29;97997.75;;;13.28;100.00
4398;BME280;2213;49.720;7.296;2022-09-17T12:05:06;97983.16;;;13.38;100.00
4398;BME280;2213;49.720;7.296;2022-09-17T12:07:48;97993.25;;;13.48;100.00
4398;BME280;2213;49.720;7.296;2022-09-17T12:10:40;98002.94;;;13.47;100.00
4398;BME280;2213;49.720;7.296;2022-09-17T12:13:26;97998.88;;;13.51;100.00
4398;BME280;2213;49.720;7.296;2022-09-17T12:16:12;98012.81;;;13.58;100.00
4398;BME280;2213;49.720;7.296;2022-09-17T12:19:02;98011.81;;;13.59;100.00
4398;BME280;2213;49.720;7.296;2022-09-17T12:21:41;98006.13;;;13.63;100.00
4398;BME280;2213;49.720;7.296;2022-09-17T12:24:20;98006.16;;;13.56;100.00
4398;BME280;2213;49.720;7.296;2022-09-17T12:27:23;98004.34;;;13.56;100.00
4398;BME280;2213;49.720;7.296;2022-09-17T12:30:14;97994.84;;;13.55;100.00
4398;BME280;2213;49.720;7.296;2022-09-17T12:33:14;97988.38;;;13.51;100.00
4398;BME280;2213;49.720;7.296;2022-09-17T12:36:19;97990.16;;;13.57;100.00
4398;BME280;2213;49.720;7.296;2022-09-17T12:42:56;97983.47;;;13.68;100.00
4398;BME280;2213;49.720;7.296;2022-09-17T12:45:47;97974.16;;;13.72;100.00
4398;BME280;2213;49.720;7.296;2022-09-17T12:52:22;97975.50;;;13.88;100.00
4398;BME280;2213;49.720;7.296;2022-09-17T12:55:43;97972.06;;;13.87;100.00
4398;BME280;2213;49.720;7.296;2022-09-17T12:58:31;97965.78;;;13.95;100.00
4398;BME280;2213;49.720;7.296;2022-09-17T13:01:18;97964.94;;;14.01;100.00
4398;BME280;2213;49.720;7.296;2022-09-17T13:04:21;97954.22;;;13.96;100.00
4398;BME280;2213;49.720;7.296;2022-09-17T13:10:51;97956.66;;;13.97;100.00
4398;BME280;2213;49.720;7.296;2022-09-17T13:14:03;97953.75;;;14.12;100.00
4398;BME280;2213;49.720;7.296;2022-09-17T13:16:42;97950.25;;;14.18;100.00
4398;BME280;2213;49.720;7.296;2022-09-17T13:19:56;97933.47;;;14.19;100.00
4398;BME280;2213;49.720;7.296;2022-09-17T13:22:43;97947.16;;;14.28;100.00
4398;BME280;2213;49.720;7.296;2022-09-17T13:25:19;97950.00;;;14.26;100.00
4398;BME280;2213;49.720;7.296;2022-09-17T13:28:05;97942.72;;;14.28;100.00
4398;BME280;2213;49.720;7.296;2022-09-17T13:30:58;97951.19;;;14.30;100.00
4398;BME280;2213;49.720;7.296;2022-09-17T13:33:55;97955.69;;;14.23;100.00
4398;BME280;2213;49.720;7.296;2022-09-17T13:36:54;97971.44;;;14.23;100.00
4398;BME280;2213;49.720;7.296;2022-09-17T13:39:42;97982.22;;;14.22;100.00
4398;BME280;2213;49.720;7.296;2022-09-17T13:42:19;98003.34;;;13.95;100.00
4398;BME280;2213;49.720;7.296;2022-09-17T13:45:05;98006.91;;;13.70;100.00
4398;BME280;2213;49.720;7.296;2022-09-17T13:47:48;98000.28;;;13.60;100.00
4398;BME280;2213;49.720;7.296;2022-09-17T13:50:27;97991.31;;;13.75;100.00
4398;BME280;2213;49.720;7.296;2022-09-17T13:53:37;97995.88;;;13.99;100.00
4398;BME280;2213;49.720;7.296;2022-09-17T13:56:31;97986.53;;;14.03;100.00
4398;BME280;2213;49.720;7.296;2022-09-17T13:59:06;97984.53;;;14.05;100.00
4398;BME280;2213;49.720;7.296;2022-09-17T14:02:02;97989.06;;;13.91;100.00
4398;BME280;2213;49.720;7.296;2022-09-17T14:04:47;97982.53;;;14.00;100.00
4398;BME280;2213;49.720;7.296;2022-09-17T14:07:45;97986.00;;;13.94;100.00
4398;BME280;2213;49.720;7.296;2022-09-17T14:10:43;97976.31;;;13.82;100.00
4398;BME280;2213;49.720;7.296;2022-09-17T14:13:42;97982.19;;;13.84;100.00
4398;BME280;2213;49.720;7.296;2022-09-17T14:17:47;97970.16;;;13.63;100.00
4398;BME280;2213;49.720;7.296;2022-09-17T14:20:26;97980.50;;;13.51;100.00
4398;BME280;2213;49.720;7.296;2022-09-17T14:23:02;97988.22;;;13.46;100.00
4398;BME280;2213;49.720;7.296;2022-09-17T14:25:43;97981.91;;;13.54;100.00